sensor_id;sensor_type;location;lat;lon;timestamp;P1;durP1;ratioP1;P2;durP2;ratioP2
61017;SDS011;48171;51.550;5.434;2022-07-06T00:02:12;6.85;;;3.67;;
61017;SDS011;48171;51.550;5.434;2022-07-06T00:04:38;7.75;;;3.53;;
61017;SDS011;48171;51.550;5.434;2022-07-06T00:07:03;6.88;;;3.35;;
61017;SDS011;48171;51.550;5.434;2022-07-06T00:09:28;6.38;;;3.20;;
61017;SDS011;48171;51.550;5.434;2022-07-06T00:11:54;6.03;;;3.38;;
61017;SDS011;48171;51.550;5.434;2022-07-06T00:14:19;7.75;;;3.55;;
61017;SDS011;48171;51.550;5.434;2022-07-06T00:16:44;9.15;;;3.60;;
61017;SDS011;48171;51.550;5.434;2022-07-06T00:19:10;7.72;;;3.30;;
61017;SDS011;48171;51.550;5.434;2022-07-06T00:21:35;6.60;;;3.70;;
61017;SDS011;48171;51.550;5.434;2022-07-06T00:24:00;8.70;;;4.00;;
61017;SDS011;48171;51.550;5.434;2022-07-06T00:26:25;9.82;;;3.90;;
61017;SDS011;48171;51.550;5.434;2022-07-06T00:28:51;7.35;;;4.20;;
61017;SDS011;48171;51.550;5.434;2022-07-06T00:31:16;7.55;;;3.83;;
61017;SDS011;48171;51.550;5.434;2022-07-06T00:33:41;9.68;;;4.00;;
61017;SDS011;48171;51.550;5.434;2022-07-06T00:36:07;6.82;;;3.70;;
61017;SDS011;48171;51.550;5.434;2022-07-06T00:38:32;5.35;;;3.60;;
61017;SDS011;48171;51.550;5.434;2022-07-06T00:40:57;7.15;;;3.50;;
61017;SDS011;48171;51.550;5.434;2022-07-06T00:43:23;6.70;;;3.35;;
61017;SDS011;48171;51.550;5.434;2022-07-06T00:45:48;7.20;;;4.07;;
61017;SDS011;48171;51.550;5.434;2022-07-06T00:48:13;5.47;;;3.67;;
61017;SDS011;48171;51.550;5.434;2022-07-06T00:50:39;6.70;;;3.80;;
61017;SDS011;48171;51.550;5.434;2022-07-06T00:53:05;7.60;;;3.38;;
61017;SDS011;48171;51.550;5.434;2022-07-06T00:55:33;8.13;;;3.88;;
61017;SDS011;48171;51.550;5.434;2022-07-06T00:58:03;8.85;;;3.65;;
61017;SDS011;48171;51.550;5.434;2022-07-06T01:00:29;7.30;;;3.90;;
61017;SDS011;48171;51.550;5.434;2022-07-06T01:02:56;8.15;;;4.00;;
61017;SDS011;48171;51.550;5.434;2022-07-06T01:05:22;7.47;;;3.80;;
61017;SDS011;48171;51.550;5.434;2022-07-06T01:07:48;6.60;;;3.75;;
61017;SDS011;48171;51.550;5.434;2022-07-06T01:10:14;8.13;;;3.92;;
61017;SDS011;48171;51.550;5.434;2022-07-06T01:12:42;9.77;;;4.03;;
61017;SDS011;48171;51.550;5.434;2022-07-06T01:15:12;8.93;;;4.50;;
61017;SDS011;48171;51.550;5.434;2022-07-06T01:17:40;8.25;;;4.40;;
61017;SDS011;48171;51.550;5.434;2022-07-06T01:20:25;7.10;;;3.80;;
61017;SDS011;48171;51.550;5.434;2022-07-06T01:22:51;10.20;;;4.55;;
61017;SDS011;48171;51.550;5.434;2022-07-06T01:25:18;8.57;;;4.18;;
61017;SDS011;48171;51.550;5.434;2022-07-06T01:27:44;7.40;;;4.28;;
61017;SDS011;48171;51.550;5.434;2022-07-06T01:30:10;7.57;;;4.15;;
61017;SDS011;48171;51.550;5.434;2022-07-06T01:32:38;11.25;;;4.90;;
61017;SDS011;48171;51.550;5.434;2022-07-06T01:35:05;10.02;;;4.38;;
61017;SDS011;48171;51.550;5.434;2022-07-06T01:37:31;9.52;;;4.20;;
61017;SDS011;48171;51.550;5.434;2022-07-06T01:39:59;11.63;;;5.22;;
61017;SDS011;48171;51.550;5.434;2022-07-06T01:42:26;8.45;;;4.68;;
61017;SDS011;48171;51.550;5.434;2022-07-06T01:44:52;9.18;;;4.43;;
61017;SDS011;48171;51.550;5.434;2022-07-06T01:47:18;9.30;;;4.63;;
61017;SDS011;48171;51.550;5.434;2022-07-06T01:49:43;10.18;;;4.72;;
61017;SDS011;48171;51.550;5.434;2022-07-06T01:52:08;9.45;;;5.00;;
61017;SDS011;48171;51.550;5.434;2022-07-06T01:54:33;12.48;;;5.13;;
61017;SDS011;48171;51.550;5.434;2022-07-06T01:56:59;11.15;;;4.80;;
61017;SDS011;48171;51.550;5.434;2022-07-06T01:59:24;12.23;;;5.63;;
61017;SDS011;48171;51.550;5.434;2022-07-06T02:01:49;11.10;;;5.20;;
61017;SDS011;48171;51.550;5.434;2022-07-06T02:04:15;12.00;;;5.22;;
61017;SDS011;48171;51.550;5.434;2022-07-06T02:06:40;9.60;;;5.07;;
61017;SDS011;48171;51.550;5.434;2022-07-06T02:09:05;9.63;;;5.30;;
61017;SDS011;48171;51.550;5.434;2022-07-06T02:11:31;12.27;;;5.68;;
61017;SDS011;48171;51.550;5.434;2022-07-06T02:13:56;10.60;;;5.22;;
61017;SDS011;48171;51.550;5.434;2022-07-06T02:16:21;10.15;;;5.45;;
61017;SDS011;48171;51.550;5.434;2022-07-06T02:18:47;12.85;;;6.18;;
61017;SDS011;48171;51.550;5.434;2022-07-06T02:21:12;11.18;;;6.13;;
61017;SDS011;48171;51.550;5.434;2022-07-06T02:23:37;11.80;;;5.88;;
61017;SDS011;48171;51.550;5.434;2022-07-06T02:26:03;11.15;;;5.47;;
61017;SDS011;48171;51.550;5.434;2022-07-06T02:28:29;11.43;;;5.65;;
61017;SDS011;48171;51.550;5.434;2022-07-06T02:30:54;12.32;;;6.00;;
61017;SDS011;48171;51.550;5.434;2022-07-06T02:33:20;14.15;;;6.40;;
61017;SDS011;48171;51.550;5.434;2022-07-06T02:35:45;15.73;;;6.65;;
61017;SDS011;48171;51.550;5.434;2022-07-06T02:38:10;14.82;;;5.70;;
61017;SDS011;48171;51.550;5.434;2022-07-06T02:40:36;11.45;;;6.15;;
61017;SDS011;48171;51.550;5.434;2022-07-06T02:43:01;12.48;;;6.07;;
61017;SDS011;48171;51.550;5.434;2022-07-06T02:45:27;12.75;;;6.55;;
61017;SDS011;48171;51.550;5.434;2022-07-06T02:47:52;11.88;;;5.57;;
61017;SDS011;48171;51.550;5.434;2022-07-06T02:50:20;10.75;;;5.30;;
61017;SDS011;48171;51.550;5.434;2022-07-06T02:52:45;13.60;;;6.68;;
61017;SDS011;48171;51.550;5.434;2022-07-06T02:55:10;13.38;;;6.28;;
61017;SDS011;48171;51.550;5.434;2022-07-06T02:57:36;10.80;;;5.75;;
61017;SDS011;48171;51.550;5.434;2022-07-06T03:00:01;11.10;;;6.50;;
61017;SDS011;48171;51.550;5.434;2022-07-06T03:02:27;13.57;;;7.07;;
61017;SDS011;48171;51.550;5.434;2022-07-06T03:04:53;17.40;;;6.47;;
61017;SDS011;48171;51.550;5.434;2022-07-06T03:07:18;11.13;;;6.20;;
61017;SDS011;48171;51.550;5.434;2022-07-06T03:09:43;12.65;;;6.60;;
61017;SDS011;48171;51.550;5.434;2022-07-06T03:12:08;12.70;;;6.60;;
61017;SDS011;48171;51.550;5.434;2022-07-06T03:14:34;11.30;;;6.18;;
61017;SDS011;48171;51.550;5.434;2022-07-06T03:16:59;12.43;;;6.18;;
61017;SDS011;48171;51.550;5.434;2022-07-06T03:19:24;13.20;;;6.20;;
61017;SDS011;48171;51.550;5.434;2022-07-06T03:21:50;11.75;;;5.80;;
61017;SDS011;48171;51.550;5.434;2022-07-06T03:24:15;11.32;;;6.47;;
61017;SDS011;48171;51.550;5.434;2022-07-06T03:26:40;11.25;;;6.22;;
61017;SDS011;48171;51.550;5.434;2022-07-06T03:29:06;11.10;;;5.97;;
61017;SDS011;48171;51.550;5.434;2022-07-06T03:31:31;11.68;;;6.25;;
61017;SDS011;48171;51.550;5.434;2022-07-06T03:33:56;13.52;;;7.07;;
61017;SDS011;48171;51.550;5.434;2022-07-06T03:36:22;11.75;;;5.70;;
61017;SDS011;48171;51.550;5.434;2022-07-06T03:38:47;9.27;;;5.70;;
61017;SDS011;48171;51.550;5.434;2022-07-06T03:41:13;17.58;;;6.15;;
61017;SDS011;48171;51.550;5.434;2022-07-06T03:43:38;12.93;;;6.05;;
61017;SDS011;48171;51.550;5.434;2022-07-06T03:46:03;11.32;;;5.80;;
61017;SDS011;48171;51.550;5.434;2022-07-06T03:48:29;9.00;;;5.70;;
61017;SDS011;48171;51.550;5.434;2022-07-06T03:50:54;11.77;;;6.15;;
61017;SDS011;48171;51.550;5.434;2022-07-06T03:53:20;11.00;;;6.07;;
61017;SDS011;48171;51.550;5.434;2022-07-06T03:55:45;12.15;;;6.28;;
61017;SDS011;48171;51.550;5.434;2022-07-06T03:58:31;13.90;;;6.28;;
61017;SDS011;48171;51.550;5.434;2022-07-06T04:00:56;11.25;;;6.45;;
61017;SDS011;48171;51.550;5.434;2022-07-06T04:03:22;13.45;;;6.18;;
61017;SDS011;48171;51.550;5.434;2022-07-06T04:05:47;12.50;;;6.65;;
61017;SDS011;48171;51.550;5.434;2022-07-06T04:08:12;12.07;;;6.50;;
61017;SDS011;48171;51.550;5.434;2022-07-06T04:10:37;10.63;;;6.15;;
61017;SDS011;48171;51.550;5.434;2022-07-06T04:13:03;14.85;;;6.00;;
61017;SDS011;48171;51.550;5.434;2022-07-06T04:15:28;16.00;;;6.60;;
61017;SDS011;48171;51.550;5.434;2022-07-06T04:17:53;11.52;;;6.47;;
61017;SDS011;48171;51.550;5.434;2022-07-06T04:20:22;10.90;;;6.38;;
61017;SDS011;48171;51.550;5.434;2022-07-06T04:22:49;12.18;;;6.30;;
61017;SDS011;48171;51.550;5.434;2022-07-06T04:25:14;11.85;;;5.78;;
61017;SDS011;48171;51.550;5.434;2022-07-06T04:27:40;11.85;;;6.22;;
61017;SDS011;48171;51.550;5.434;2022-07-06T04:30:06;12.68;;;6.20;;
61017;SDS011;48171;51.550;5.434;2022-07-06T04:32:32;11.57;;;7.00;;
61017;SDS011;48171;51.550;5.434;2022-07-06T04:34:58;16.23;;;6.72;;
61017;SDS011;48171;51.550;5.434;2022-07-06T04:37:23;12.93;;;6.85;;
61017;SDS011;48171;51.550;5.434;2022-07-06T04:39:49;15.13;;;6.70;;
61017;SDS011;48171;51.550;5.434;2022-07-06T04:42:14;14.82;;;6.75;;
61017;SDS011;48171;51.550;5.434;2022-07-06T04:44:39;15.38;;;6.55;;
61017;SDS011;48171;51.550;5.434;2022-07-06T04:47:05;13.18;;;6.65;;
61017;SDS011;48171;51.550;5.434;2022-07-06T04:49:30;10.68;;;6.13;;
61017;SDS011;48171;51.550;5.434;2022-07-06T04:51:56;13.20;;;6.68;;
61017;SDS011;48171;51.550;5.434;2022-07-06T04:54:21;21.27;;;6.03;;
61017;SDS011;48171;51.550;5.434;2022-07-06T04:56:46;12.45;;;6.07;;
61017;SDS011;48171;51.550;5.434;2022-07-06T04:59:12;11.93;;;6.18;;
61017;SDS011;48171;51.550;5.434;2022-07-06T05:01:38;11.38;;;6.13;;
61017;SDS011;48171;51.550;5.434;2022-07-06T05:04:03;12.27;;;6.25;;
61017;SDS011;48171;51.550;5.434;2022-07-06T05:06:29;11.93;;;6.35;;
61017;SDS011;48171;51.550;5.434;2022-07-06T05:08:54;9.98;;;5.43;;
61017;SDS011;48171;51.550;5.434;2022-07-06T05:11:20;12.80;;;6.70;;
61017;SDS011;48171;51.550;5.434;2022-07-06T05:13:45;10.48;;;6.13;;
61017;SDS011;48171;51.550;5.434;2022-07-06T05:16:10;13.65;;;6.68;;
61017;SDS011;48171;51.550;5.434;2022-07-06T05:18:35;14.55;;;6.38;;
61017;SDS011;48171;51.550;5.434;2022-07-06T05:21:01;11.07;;;5.75;;
61017;SDS011;48171;51.550;5.434;2022-07-06T05:23:26;8.35;;;5.35;;
61017;SDS011;48171;51.550;5.434;2022-07-06T05:25:53;12.15;;;6.07;;
61017;SDS011;48171;51.550;5.434;2022-07-06T05:28:18;13.05;;;6.35;;
61017;SDS011;48171;51.550;5.434;2022-07-06T05:30:43;9.60;;;5.68;;
61017;SDS011;48171;51.550;5.434;2022-07-06T05:33:08;12.63;;;5.60;;
61017;SDS011;48171;51.550;5.434;2022-07-06T05:35:34;10.88;;;6.30;;
61017;SDS011;48171;51.550;5.434;2022-07-06T05:37:59;10.40;;;5.68;;
61017;SDS011;48171;51.550;5.434;2022-07-06T05:40:24;13.50;;;5.88;;
61017;SDS011;48171;51.550;5.434;2022-07-06T05:42:50;11.55;;;5.55;;
61017;SDS011;48171;51.550;5.434;2022-07-06T05:45:15;9.95;;;5.22;;
61017;SDS011;48171;51.550;5.434;2022-07-06T05:47:40;11.45;;;5.90;;
61017;SDS011;48171;51.550;5.434;2022-07-06T05:50:24;14.32;;;5.53;;
61017;SDS011;48171;51.550;5.434;2022-07-06T05:52:59;9.75;;;5.50;;
61017;SDS011;48171;51.550;5.434;2022-07-06T05:55:26;11.57;;;5.80;;
61017;SDS011;48171;51.550;5.434;2022-07-06T05:57:52;9.07;;;4.60;;
61017;SDS011;48171;51.550;5.434;2022-07-06T06:00:19;9.60;;;4.63;;
61017;SDS011;48171;51.550;5.434;2022-07-06T06:02:45;8.55;;;4.15;;
61017;SDS011;48171;51.550;5.434;2022-07-06T06:05:10;10.25;;;4.28;;
61017;SDS011;48171;51.550;5.434;2022-07-06T06:07:38;6.97;;;4.05;;
61017;SDS011;48171;51.550;5.434;2022-07-06T06:10:04;8.85;;;4.47;;
61017;SDS011;48171;51.550;5.434;2022-07-06T06:12:32;6.45;;;3.30;;
61017;SDS011;48171;51.550;5.434;2022-07-06T06:14:57;9.20;;;3.95;;
61017;SDS011;48171;51.550;5.434;2022-07-06T06:17:22;6.35;;;3.40;;
61017;SDS011;48171;51.550;5.434;2022-07-06T06:19:48;5.20;;;2.67;;
61017;SDS011;48171;51.550;5.434;2022-07-06T06:22:13;6.43;;;2.83;;
61017;SDS011;48171;51.550;5.434;2022-07-06T06:24:39;6.80;;;2.72;;
61017;SDS011;48171;51.550;5.434;2022-07-06T06:27:04;6.68;;;2.90;;
61017;SDS011;48171;51.550;5.434;2022-07-06T06:29:29;5.40;;;2.45;;
61017;SDS011;48171;51.550;5.434;2022-07-06T06:31:54;7.47;;;2.90;;
61017;SDS011;48171;51.550;5.434;2022-07-06T06:34:20;6.85;;;3.10;;
61017;SDS011;48171;51.550;5.434;2022-07-06T06:36:45;5.22;;;2.92;;
61017;SDS011;48171;51.550;5.434;2022-07-06T06:39:10;6.15;;;2.95;;
61017;SDS011;48171;51.550;5.434;2022-07-06T06:41:36;6.60;;;2.75;;
61017;SDS011;48171;51.550;5.434;2022-07-06T06:44:01;6.72;;;3.13;;
61017;SDS011;48171;51.550;5.434;2022-07-06T06:46:26;7.18;;;3.22;;
61017;SDS011;48171;51.550;5.434;2022-07-06T06:48:51;5.25;;;2.58;;
61017;SDS011;48171;51.550;5.434;2022-07-06T06:51:17;6.10;;;2.70;;
61017;SDS011;48171;51.550;5.434;2022-07-06T06:53:42;5.97;;;3.08;;
61017;SDS011;48171;51.550;5.434;2022-07-06T06:56:07;7.55;;;2.70;;
61017;SDS011;48171;51.550;5.434;2022-07-06T06:58:33;6.15;;;2.53;;
61017;SDS011;48171;51.550;5.434;2022-07-06T07:00:59;5.18;;;2.58;;
61017;SDS011;48171;51.550;5.434;2022-07-06T07:03:24;5.18;;;2.50;;
61017;SDS011;48171;51.550;5.434;2022-07-06T07:05:49;6.07;;;2.70;;
61017;SDS011;48171;51.550;5.434;2022-07-06T07:08:15;7.03;;;2.70;;
61017;SDS011;48171;51.550;5.434;2022-07-06T07:10:40;5.43;;;2.60;;
61017;SDS011;48171;51.550;5.434;2022-07-06T07:13:05;6.68;;;2.58;;
61017;SDS011;48171;51.550;5.434;2022-07-06T07:15:30;6.63;;;2.83;;
61017;SDS011;48171;51.550;5.434;2022-07-06T07:17:56;7.68;;;2.50;;
61017;SDS011;48171;51.550;5.434;2022-07-06T07:20:21;6.53;;;2.53;;
61017;SDS011;48171;51.550;5.434;2022-07-06T07:22:47;5.68;;;2.47;;
61017;SDS011;48171;51.550;5.434;2022-07-06T07:25:12;6.95;;;2.50;;
61017;SDS011;48171;51.550;5.434;2022-07-06T07:27:37;6.45;;;2.47;;
61017;SDS011;48171;51.550;5.434;2022-07-06T07:30:03;5.75;;;2.30;;
61017;SDS011;48171;51.550;5.434;2022-07-06T07:32:29;4.72;;;2.05;;
61017;SDS011;48171;51.550;5.434;2022-07-06T07:34:54;5.05;;;1.90;;
61017;SDS011;48171;51.550;5.434;2022-07-06T07:37:20;5.28;;;1.80;;
61017;SDS011;48171;51.550;5.434;2022-07-06T07:39:45;2.22;;;1.10;;
61017;SDS011;48171;51.550;5.434;2022-07-06T07:42:10;3.35;;;1.38;;
61017;SDS011;48171;51.550;5.434;2022-07-06T07:44:36;6.18;;;1.30;;
61017;SDS011;48171;51.550;5.434;2022-07-06T07:47:01;4.78;;;1.10;;
61017;SDS011;48171;51.550;5.434;2022-07-06T07:49:26;3.55;;;1.15;;
61017;SDS011;48171;51.550;5.434;2022-07-06T07:51:52;3.78;;;1.40;;
61017;SDS011;48171;51.550;5.434;2022-07-06T07:54:17;3.42;;;1.20;;
61017;SDS011;48171;51.550;5.434;2022-07-06T07:56:42;2.00;;;0.82;;
61017;SDS011;48171;51.550;5.434;2022-07-06T07:59:08;3.35;;;1.13;;
61017;SDS011;48171;51.550;5.434;2022-07-06T08:01:34;4.72;;;1.60;;
61017;SDS011;48171;51.550;5.434;2022-07-06T08:03:59;4.22;;;1.45;;
61017;SDS011;48171;51.550;5.434;2022-07-06T08:06:24;1.92;;;1.30;;
61017;SDS011;48171;51.550;5.434;2022-07-06T08:08:50;3.33;;;1.38;;
61017;SDS011;48171;51.550;5.434;2022-07-06T08:11:15;2.38;;;1.40;;
61017;SDS011;48171;51.550;5.434;2022-07-06T08:13:41;3.00;;;1.63;;
61017;SDS011;48171;51.550;5.434;2022-07-06T08:16:06;3.47;;;1.70;;
61017;SDS011;48171;51.550;5.434;2022-07-06T08:18:32;5.38;;;2.03;;
61017;SDS011;48171;51.550;5.434;2022-07-06T08:20:57;1.70;;;1.50;;
61017;SDS011;48171;51.550;5.434;2022-07-06T08:23:23;3.92;;;1.60;;
61017;SDS011;48171;51.550;5.434;2022-07-06T08:25:48;3.58;;;1.55;;
61017;SDS011;48171;51.550;5.434;2022-07-06T08:28:14;4.00;;;1.70;;
61017;SDS011;48171;51.550;5.434;2022-07-06T08:30:39;2.88;;;1.50;;
61017;SDS011;48171;51.550;5.434;2022-07-06T08:33:04;1.92;;;1.30;;
61017;SDS011;48171;51.550;5.434;2022-07-06T08:35:30;4.90;;;1.70;;
61017;SDS011;48171;51.550;5.434;2022-07-06T08:37:56;5.88;;;1.77;;
61017;SDS011;48171;51.550;5.434;2022-07-06T08:40:21;3.28;;;1.60;;
61017;SDS011;48171;51.550;5.434;2022-07-06T08:42:47;7.00;;;1.20;;
61017;SDS011;48171;51.550;5.434;2022-07-06T08:45:19;5.88;;;1.30;;
61017;SDS011;48171;51.550;5.434;2022-07-06T08:47:45;3.20;;;1.30;;
61017;SDS011;48171;51.550;5.434;2022-07-06T08:50:14;4.57;;;1.40;;
61017;SDS011;48171;51.550;5.434;2022-07-06T08:52:41;5.20;;;1.45;;
61017;SDS011;48171;51.550;5.434;2022-07-06T08:55:08;2.22;;;1.20;;
61017;SDS011;48171;51.550;5.434;2022-07-06T08:57:33;5.80;;;1.40;;
61017;SDS011;48171;51.550;5.434;2022-07-06T08:59:59;2.95;;;1.15;;
61017;SDS011;48171;51.550;5.434;2022-07-06T09:02:25;2.53;;;1.50;;
61017;SDS011;48171;51.550;5.434;2022-07-06T09:04:54;3.90;;;1.25;;
61017;SDS011;48171;51.550;5.434;2022-07-06T09:07:21;3.08;;;1.67;;
61017;SDS011;48171;51.550;5.434;2022-07-06T09:09:47;2.67;;;1.23;;
61017;SDS011;48171;51.550;5.434;2022-07-06T09:12:15;3.75;;;1.30;;
61017;SDS011;48171;51.550;5.434;2022-07-06T09:14:40;4.03;;;1.48;;
61017;SDS011;48171;51.550;5.434;2022-07-06T09:17:06;2.45;;;1.42;;
61017;SDS011;48171;51.550;5.434;2022-07-06T09:19:32;3.58;;;1.52;;
61017;SDS011;48171;51.550;5.434;2022-07-06T09:21:59;3.25;;;1.40;;
61017;SDS011;48171;51.550;5.434;2022-07-06T09:24:25;2.42;;;1.20;;
61017;SDS011;48171;51.550;5.434;2022-07-06T09:26:51;6.70;;;1.40;;
61017;SDS011;48171;51.550;5.434;2022-07-06T09:29:26;2.83;;;1.40;;
61017;SDS011;48171;51.550;5.434;2022-07-06T09:31:58;5.03;;;1.40;;
61017;SDS011;48171;51.550;5.434;2022-07-06T09:37:04;3.65;;;1.20;;
61017;SDS011;48171;51.550;5.434;2022-07-06T09:39:31;5.57;;;1.13;;
61017;SDS011;48171;51.550;5.434;2022-07-06T09:41:57;2.33;;;0.90;;
61017;SDS011;48171;51.550;5.434;2022-07-06T09:44:27;1.98;;;1.20;;
61017;SDS011;48171;51.550;5.434;2022-07-06T09:46:58;3.55;;;1.30;;
61017;SDS011;48171;51.550;5.434;2022-07-06T09:49:25;3.22;;;1.20;;
61017;SDS011;48171;51.550;5.434;2022-07-06T09:51:51;3.17;;;1.45;;
61017;SDS011;48171;51.550;5.434;2022-07-06T09:54:19;3.58;;;1.17;;
61017;SDS011;48171;51.550;5.434;2022-07-06T09:56:46;2.55;;;1.17;;
61017;SDS011;48171;51.550;5.434;2022-07-06T09:59:22;3.67;;;1.00;;
61017;SDS011;48171;51.550;5.434;2022-07-06T10:01:56;4.00;;;1.20;;
61017;SDS011;48171;51.550;5.434;2022-07-06T10:04:23;2.83;;;1.10;;
61017;SDS011;48171;51.550;5.434;2022-07-06T10:06:50;4.60;;;1.10;;
61017;SDS011;48171;51.550;5.434;2022-07-06T10:09:17;6.60;;;1.05;;
61017;SDS011;48171;51.550;5.434;2022-07-06T10:14:37;3.03;;;1.10;;
61017;SDS011;48171;51.550;5.434;2022-07-06T10:17:03;2.78;;;1.15;;
61017;SDS011;48171;51.550;5.434;2022-07-06T10:19:30;2.78;;;1.20;;
61017;SDS011;48171;51.550;5.434;2022-07-06T10:21:57;1.85;;;1.02;;
61017;SDS011;48171;51.550;5.434;2022-07-06T10:24:25;3.08;;;1.00;;
61017;SDS011;48171;51.550;5.434;2022-07-06T10:26:52;2.42;;;0.93;;
61017;SDS011;48171;51.550;5.434;2022-07-06T10:29:17;4.13;;;1.00;;
61017;SDS011;48171;51.550;5.434;2022-07-06T10:31:44;1.83;;;0.98;;
61017;SDS011;48171;51.550;5.434;2022-07-06T10:34:11;3.60;;;1.05;;
61017;SDS011;48171;51.550;5.434;2022-07-06T10:36:38;1.42;;;1.10;;
61017;SDS011;48171;51.550;5.434;2022-07-06T10:39:05;2.75;;;1.25;;
61017;SDS011;48171;51.550;5.434;2022-07-06T10:41:51;5.13;;;1.42;;
61017;SDS011;48171;51.550;5.434;2022-07-06T10:44:17;2.97;;;1.35;;
61017;SDS011;48171;51.550;5.434;2022-07-06T10:46:49;3.20;;;1.00;;
61017;SDS011;48171;51.550;5.434;2022-07-06T10:49:16;2.50;;;1.08;;
61017;SDS011;48171;51.550;5.434;2022-07-06T10:51:42;1.42;;;0.80;;
61017;SDS011;48171;51.550;5.434;2022-07-06T10:54:07;1.98;;;0.88;;
61017;SDS011;48171;51.550;5.434;2022-07-06T10:56:42;2.95;;;1.08;;
61017;SDS011;48171;51.550;5.434;2022-07-06T10:59:10;3.88;;;1.02;;
61017;SDS011;48171;51.550;5.434;2022-07-06T11:01:37;3.00;;;1.45;;
61017;SDS011;48171;51.550;5.434;2022-07-06T11:06:34;3.50;;;1.00;;
61017;SDS011;48171;51.550;5.434;2022-07-06T11:09:07;4.15;;;1.00;;
61017;SDS011;48171;51.550;5.434;2022-07-06T11:14:06;2.45;;;0.95;;
61017;SDS011;48171;51.550;5.434;2022-07-06T11:16:37;4.63;;;1.45;;
61017;SDS011;48171;51.550;5.434;2022-07-06T11:21:37;3.90;;;1.10;;
61017;SDS011;48171;51.550;5.434;2022-07-06T11:24:04;2.78;;;1.23;;
61017;SDS011;48171;51.550;5.434;2022-07-06T11:26:31;5.60;;;1.23;;
61017;SDS011;48171;51.550;5.434;2022-07-06T11:28:58;3.25;;;0.90;;
61017;SDS011;48171;51.550;5.434;2022-07-06T11:31:25;1.92;;;0.90;;
61017;SDS011;48171;51.550;5.434;2022-07-06T11:33:50;5.55;;;1.10;;
61017;SDS011;48171;51.550;5.434;2022-07-06T11:36:19;4.88;;;1.20;;
61017;SDS011;48171;51.550;5.434;2022-07-06T11:38:47;1.45;;;0.90;;
61017;SDS011;48171;51.550;5.434;2022-07-06T11:41:14;1.98;;;1.00;;
61017;SDS011;48171;51.550;5.434;2022-07-06T11:43:41;2.00;;;1.10;;
61017;SDS011;48171;51.550;5.434;2022-07-06T11:46:25;4.95;;;1.10;;
61017;SDS011;48171;51.550;5.434;2022-07-06T11:48:56;5.70;;;1.00;;
61017;SDS011;48171;51.550;5.434;2022-07-06T11:51:23;3.55;;;1.02;;
61017;SDS011;48171;51.550;5.434;2022-07-06T11:53:51;3.03;;;1.02;;
61017;SDS011;48171;51.550;5.434;2022-07-06T11:56:18;4.45;;;1.02;;
61017;SDS011;48171;51.550;5.434;2022-07-06T11:58:46;1.95;;;1.10;;
61017;SDS011;48171;51.550;5.434;2022-07-06T12:01:13;17.73;;;2.00;;
61017;SDS011;48171;51.550;5.434;2022-07-06T12:03:39;106.25;;;6.07;;
61017;SDS011;48171;51.550;5.434;2022-07-06T12:06:05;2.78;;;1.10;;
61017;SDS011;48171;51.550;5.434;2022-07-06T12:08:41;1.98;;;1.02;;
61017;SDS011;48171;51.550;5.434;2022-07-06T12:11:10;7.13;;;1.20;;
61017;SDS011;48171;51.550;5.434;2022-07-06T12:13:41;4.43;;;1.00;;
61017;SDS011;48171;51.550;5.434;2022-07-06T12:16:11;4.03;;;1.13;;
61017;SDS011;48171;51.550;5.434;2022-07-06T12:18:38;3.58;;;1.25;;
61017;SDS011;48171;51.550;5.434;2022-07-06T12:21:10;2.83;;;1.02;;
61017;SDS011;48171;51.550;5.434;2022-07-06T12:23:41;1.90;;;1.05;;
61017;SDS011;48171;51.550;5.434;2022-07-06T12:26:11;2.42;;;1.10;;
61017;SDS011;48171;51.550;5.434;2022-07-06T12:28:37;2.00;;;0.82;;
61017;SDS011;48171;51.550;5.434;2022-07-06T12:31:03;3.13;;;1.00;;
61017;SDS011;48171;51.550;5.434;2022-07-06T12:33:29;2.25;;;0.98;;
61017;SDS011;48171;51.550;5.434;2022-07-06T12:35:56;3.47;;;0.90;;
61017;SDS011;48171;51.550;5.434;2022-07-06T12:38:22;2.83;;;1.00;;
61017;SDS011;48171;51.550;5.434;2022-07-06T12:40:49;2.60;;;1.08;;
61017;SDS011;48171;51.550;5.434;2022-07-06T12:43:33;2.28;;;0.80;;
61017;SDS011;48171;51.550;5.434;2022-07-06T12:45:59;2.53;;;1.00;;
61017;SDS011;48171;51.550;5.434;2022-07-06T12:48:25;3.00;;;1.10;;
61017;SDS011;48171;51.550;5.434;2022-07-06T12:50:50;1.67;;;1.10;;
61017;SDS011;48171;51.550;5.434;2022-07-06T12:53:25;1.88;;;0.95;;
61017;SDS011;48171;51.550;5.434;2022-07-06T12:58:36;3.17;;;1.00;;
61017;SDS011;48171;51.550;5.434;2022-07-06T13:01:01;2.47;;;1.00;;
61017;SDS011;48171;51.550;5.434;2022-07-06T13:03:27;6.68;;;1.00;;
61017;SDS011;48171;51.550;5.434;2022-07-06T13:05:52;2.67;;;1.00;;
61017;SDS011;48171;51.550;5.434;2022-07-06T13:08:17;4.68;;;0.93;;
61017;SDS011;48171;51.550;5.434;2022-07-06T13:10:43;3.50;;;1.00;;
61017;SDS011;48171;51.550;5.434;2022-07-06T13:13:10;3.40;;;0.93;;
61017;SDS011;48171;51.550;5.434;2022-07-06T13:15:35;2.25;;;0.98;;
61017;SDS011;48171;51.550;5.434;2022-07-06T13:18:00;2.28;;;1.20;;
61017;SDS011;48171;51.550;5.434;2022-07-06T13:20:25;2.75;;;1.08;;
61017;SDS011;48171;51.550;5.434;2022-07-06T13:22:51;3.72;;;1.20;;
61017;SDS011;48171;51.550;5.434;2022-07-06T13:25:16;2.65;;;1.38;;
61017;SDS011;48171;51.550;5.434;2022-07-06T13:27:41;4.53;;;1.08;;
61017;SDS011;48171;51.550;5.434;2022-07-06T13:30:07;4.07;;;1.30;;
61017;SDS011;48171;51.550;5.434;2022-07-06T13:32:33;3.55;;;1.48;;
61017;SDS011;48171;51.550;5.434;2022-07-06T13:34:58;2.72;;;1.05;;
61017;SDS011;48171;51.550;5.434;2022-07-06T13:37:23;7.13;;;1.50;;
61017;SDS011;48171;51.550;5.434;2022-07-06T13:39:48;4.28;;;1.92;;
61017;SDS011;48171;51.550;5.434;2022-07-06T13:42:14;3.47;;;1.65;;
61017;SDS011;48171;51.550;5.434;2022-07-06T13:44:39;3.33;;;1.63;;
61017;SDS011;48171;51.550;5.434;2022-07-06T13:47:04;2.45;;;1.38;;
61017;SDS011;48171;51.550;5.434;2022-07-06T13:49:30;5.28;;;1.20;;
61017;SDS011;48171;51.550;5.434;2022-07-06T13:51:55;2.78;;;1.35;;
61017;SDS011;48171;51.550;5.434;2022-07-06T13:54:27;3.85;;;1.63;;
61017;SDS011;48171;51.550;5.434;2022-07-06T13:56:52;3.28;;;1.27;;
61017;SDS011;48171;51.550;5.434;2022-07-06T13:59:18;4.07;;;1.35;;
61017;SDS011;48171;51.550;5.434;2022-07-06T14:01:43;3.10;;;1.58;;
61017;SDS011;48171;51.550;5.434;2022-07-06T14:04:08;2.60;;;1.60;;
61017;SDS011;48171;51.550;5.434;2022-07-06T14:06:33;3.95;;;1.58;;
61017;SDS011;48171;51.550;5.434;2022-07-06T14:09:00;5.28;;;1.65;;
61017;SDS011;48171;51.550;5.434;2022-07-06T14:11:25;3.38;;;1.80;;
61017;SDS011;48171;51.550;5.434;2022-07-06T14:13:50;3.97;;;1.60;;
61017;SDS011;48171;51.550;5.434;2022-07-06T14:16:16;5.78;;;2.13;;
61017;SDS011;48171;51.550;5.434;2022-07-06T14:18:41;3.40;;;1.75;;
61017;SDS011;48171;51.550;5.434;2022-07-06T14:21:08;3.38;;;2.00;;
61017;SDS011;48171;51.550;5.434;2022-07-06T14:23:34;8.73;;;2.17;;
61017;SDS011;48171;51.550;5.434;2022-07-06T14:25:59;7.47;;;2.13;;
61017;SDS011;48171;51.550;5.434;2022-07-06T14:28:24;6.70;;;2.30;;
61017;SDS011;48171;51.550;5.434;2022-07-06T14:30:50;5.40;;;1.95;;
61017;SDS011;48171;51.550;5.434;2022-07-06T14:33:15;5.47;;;1.90;;
61017;SDS011;48171;51.550;5.434;2022-07-06T14:35:44;4.60;;;2.22;;
61017;SDS011;48171;51.550;5.434;2022-07-06T14:38:15;5.47;;;1.80;;
61017;SDS011;48171;51.550;5.434;2022-07-06T14:40:42;5.53;;;2.38;;
61017;SDS011;48171;51.550;5.434;2022-07-06T14:43:08;4.88;;;2.22;;
61017;SDS011;48171;51.550;5.434;2022-07-06T14:45:33;6.13;;;2.50;;
61017;SDS011;48171;51.550;5.434;2022-07-06T14:47:59;6.78;;;1.90;;
61017;SDS011;48171;51.550;5.434;2022-07-06T14:50:25;7.28;;;2.00;;
61017;SDS011;48171;51.550;5.434;2022-07-06T14:52:51;4.45;;;1.75;;
61017;SDS011;48171;51.550;5.434;2022-07-06T14:55:17;6.13;;;2.00;;